sensor_id;sensor_type;location;lat;lon;timestamp;pressure;altitude;pressure_sealevel;temperature;humidity
48390;BME280;34643;47.964;7.982;2023-12-29T00:01:58;96907.56;;;15.84;64.21
48390;BME280;34643;47.964;7.982;2023-12-29T00:04:24;96907.56;;;15.84;64.30
48390;BME280;34643;47.964;7.982;2023-12-29T00:06:50;96902.47;;;15.82;64.12
48390;BME280;34643;47.964;7.982;2023-12-29T00:09:15;96895.47;;;15.83;64.20
48390;BME280;34643;47.964;7.982;2023-12-29T00:11:40;96893.84;;;15.82;64.18
48390;BME280;34643;47.964;7.982;2023-12-29T00:14:06;96903.09;;;15.86;64.41
48390;BME280;34643;47.964;7.982;2023-12-29T00:16:31;96917.56;;;15.90;64.50
48390;BME280;34643;47.964;7.982;2023-12-29T00:18:56;96903.81;;;15.88;64.24
48390;BME280;34643;47.964;7.982;2023-12-29T00:21:21;96903.91;;;15.86;64.38
48390;BME280;34643;47.964;7.982;2023-12-29T00:23:47;96896.13;;;15.86;64.23
48390;BME280;34643;47.964;7.982;2023-12-29T00:26:15;96907.47;;;15.85;64.21
48390;BME280;34643;47.964;7.982;2023-12-29T00:28:41;96891.03;;;15.85;64.04
48390;BME280;34643;47.964;7.982;2023-12-29T00:31:07;96903.91;;;15.86;63.99
48390;BME280;34643;47.964;7.982;2023-12-29T00:33:33;96905.69;;;15.86;64.01
48390;BME280;34643;47.964;7.982;2023-12-29T00:35:58;96891.84;;;15.85;64.11
48390;BME280;34643;47.964;7.982;2023-12-29T00:38:24;96905.78;;;15.84;63.92
48390;BME280;34643;47.964;7.982;2023-12-29T00:40:49;96891.03;;;15.85;63.96
48390;BME280;34643;47.964;7.982;2023-12-29T00:43:15;96886.75;;;15.84;63.80
48390;BME280;34643;47.964;7.982;2023-12-29T00:45:40;96885.81;;;15.85;63.74
48390;BME280;34643;47.964;7.982;2023-12-29T00:48:05;96890.09;;;15.86;63.78
48390;BME280;34643;47.964;7.982;2023-12-29T00:50:33;96883.22;;;15.85;63.80
48390;BME280;34643;47.964;7.982;2023-12-29T00:52:59;96884.16;;;15.84;63.84
48390;BME280;34643;47.964;7.982;2023-12-29T00:55:25;96875.41;;;15.85;63.73
48390;BME280;34643;47.964;7.982;2023-12-29T00:57:50;96875.63;;;15.82;63.77
48390;BME280;34643;47.964;7.982;2023-12-29T01:00:15;96886.03;;;15.82;63.86
48390;BME280;34643;47.964;7.982;2023-12-29T01:02:41;96887.69;;;15.83;63.74
48390;BME280;34643;47.964;7.982;2023-12-29T01:05:06;96880.81;;;15.82;63.78
48390;BME280;34643;47.964;7.982;2023-12-29T01:07:32;96899.03;;;15.82;63.74
48390;BME280;34643;47.964;7.982;2023-12-29T01:09:57;96893.00;;;15.81;63.50
48390;BME280;34643;47.964;7.982;2023-12-29T01:12:24;96903.41;;;15.81;63.52
48390;BME280;34643;47.964;7.982;2023-12-29T01:14:50;96901.84;;;15.78;63.62
48390;BME280;34643;47.964;7.982;2023-12-29T01:17:15;96913.84;;;15.81;63.60
48390;BME280;34643;47.964;7.982;2023-12-29T01:19:40;96908.50;;;15.83;63.56
48390;BME280;34643;47.964;7.982;2023-12-29T01:22:06;96912.88;;;15.82;63.56
48390;BME280;34643;47.964;7.982;2023-12-29T01:24:31;96914.66;;;15.82;63.51
48390;BME280;34643;47.964;7.982;2023-12-29T01:26:56;96922.47;;;15.82;63.66
48390;BME280;34643;47.964;7.982;2023-12-29T01:29:22;96918.19;;;15.81;63.76
48390;BME280;34643;47.964;7.982;2023-12-29T01:31:47;96916.44;;;15.81;63.81
48390;BME280;34643;47.964;7.982;2023-12-29T01:34:13;96916.44;;;15.81;63.58
48390;BME280;34643;47.964;7.982;2023-12-29T01:36:38;96911.31;;;15.80;63.71
48390;BME280;34643;47.964;7.982;2023-12-29T01:39:04;96907.78;;;15.81;63.64
48390;BME280;34643;47.964;7.982;2023-12-29T01:41:29;96914.13;;;15.76;63.70
48390;BME280;34643;47.964;7.982;2023-12-29T01:46:27;96913.94;;;15.80;63.70
48390;BME280;34643;47.964;7.982;2023-12-29T01:48:53;96914.03;;;15.78;63.67
48390;BME280;34643;47.964;7.982;2023-12-29T01:51:18;96909.66;;;15.78;63.49
48390;BME280;34643;47.964;7.982;2023-12-29T01:53:45;96915.81;;;15.77;63.69
48390;BME280;34643;47.964;7.982;2023-12-29T01:56:11;96905.38;;;15.77;63.37
48390;BME280;34643;47.964;7.982;2023-12-29T01:58:37;96902.78;;;15.77;63.39
48390;BME280;34643;47.964;7.982;2023-12-29T02:01:02;96909.66;;;15.78;63.48
48390;BME280;34643;47.964;7.982;2023-12-29T02:03:28;96906.22;;;15.78;63.57
48390;BME280;34643;47.964;7.982;2023-12-29T02:05:57;96889.78;;;15.77;63.50
48390;BME280;34643;47.964;7.982;2023-12-29T02:08:22;96888.09;;;15.76;63.54
48390;BME280;34643;47.964;7.982;2023-12-29T02:10:48;96883.72;;;15.77;63.57
48390;BME280;34643;47.964;7.982;2023-12-29T02:13:13;96880.28;;;15.76;63.65
48390;BME280;34643;47.964;7.982;2023-12-29T02:15:39;96878.59;;;15.75;63.52
48390;BME280;34643;47.964;7.982;2023-12-29T02:18:05;96885.50;;;15.76;63.32
48390;BME280;34643;47.964;7.982;2023-12-29T02:20:31;96875.91;;;15.77;63.44
48390;BME280;34643;47.964;7.982;2023-12-29T02:22:56;96877.69;;;15.76;63.42
48390;BME280;34643;47.964;7.982;2023-12-29T02:25:22;96876.00;;;15.75;63.42
48390;BME280;34643;47.964;7.982;2023-12-29T02:32:44;96878.59;;;15.75;63.63
48390;BME280;34643;47.964;7.982;2023-12-29T02:35:12;96876.00;;;15.75;63.49
48390;BME280;34643;47.964;7.982;2023-12-29T02:37:39;96890.69;;;15.76;63.51
48390;BME280;34643;47.964;7.982;2023-12-29T02:40:04;96881.22;;;15.75;63.52
48390;BME280;34643;47.964;7.982;2023-12-29T02:42:30;96876.00;;;15.75;63.45
48390;BME280;34643;47.964;7.982;2023-12-29T02:44:55;96870.69;;;15.77;63.34
48390;BME280;34643;47.964;7.982;2023-12-29T02:47:21;96863.84;;;15.76;63.53
48390;BME280;34643;47.964;7.982;2023-12-29T02:49:47;96851.75;;;15.75;63.36
48390;BME280;34643;47.964;7.982;2023-12-29T02:52:12;96845.78;;;15.73;63.48
48390;BME280;34643;47.964;7.982;2023-12-29T02:54:38;96853.53;;;15.74;63.53
48390;BME280;34643;47.964;7.982;2023-12-29T02:57:03;96846.47;;;15.76;63.32
48390;BME280;34643;47.964;7.982;2023-12-29T02:59:28;96830.94;;;15.75;63.30
48390;BME280;34643;47.964;7.982;2023-12-29T03:01:54;96844.78;;;15.75;63.38
48390;BME280;34643;47.964;7.982;2023-12-29T03:04:20;96847.38;;;15.75;63.35
48390;BME280;34643;47.964;7.982;2023-12-29T03:06:45;96849.88;;;15.77;63.31
48390;BME280;34643;47.964;7.982;2023-12-29T03:09:11;96855.19;;;15.75;63.34
48390;BME280;34643;47.964;7.982;2023-12-29T03:11:36;96842.16;;;15.75;63.40
48390;BME280;34643;47.964;7.982;2023-12-29T03:14:02;96848.31;;;15.74;63.46
48390;BME280;34643;47.964;7.982;2023-12-29T03:16:27;96853.53;;;15.74;63.50
48390;BME280;34643;47.964;7.982;2023-12-29T03:18:52;96849.22;;;15.73;63.42
48390;BME280;34643;47.964;7.982;2023-12-29T03:21:18;96850.94;;;15.74;63.49
48390;BME280;34643;47.964;7.982;2023-12-29T03:23:43;96848.31;;;15.74;63.53
48390;BME280;34643;47.964;7.982;2023-12-29T03:26:08;96845.72;;;15.74;63.43
48390;BME280;34643;47.964;7.982;2023-12-29T03:28:34;96849.97;;;15.75;63.44
48390;BME280;34643;47.964;7.982;2023-12-29T03:30:59;96835.22;;;15.76;63.42
48390;BME280;34643;47.964;7.982;2023-12-29T03:33:24;96845.63;;;15.76;63.52
48390;BME280;34643;47.964;7.982;2023-12-29T03:35:50;96836.03;;;15.76;63.48
48390;BME280;34643;47.964;7.982;2023-12-29T03:38:15;96839.56;;;15.75;63.60
48390;BME280;34643;47.964;7.982;2023-12-29T03:40:41;96835.22;;;15.76;63.43
48390;BME280;34643;47.964;7.982;2023-12-29T03:43:07;96842.94;;;15.77;63.51
48390;BME280;34643;47.964;7.982;2023-12-29T03:45:32;96844.56;;;15.78;63.40
48390;BME280;34643;47.964;7.982;2023-12-29T03:47:58;96845.53;;;15.77;63.41
48390;BME280;34643;47.964;7.982;2023-12-29T03:50:24;96838.56;;;15.78;63.37
48390;BME280;34643;47.964;7.982;2023-12-29T03:52:49;96837.72;;;15.77;63.37
48390;BME280;34643;47.964;7.982;2023-12-29T03:55:15;96833.34;;;15.78;63.45
48390;BME280;34643;47.964;7.982;2023-12-29T03:57:42;96818.66;;;15.77;63.50
48390;BME280;34643;47.964;7.982;2023-12-29T04:00:07;96818.75;;;15.75;63.50
48390;BME280;34643;47.964;7.982;2023-12-29T04:02:37;96813.44;;;15.77;63.42
48390;BME280;34643;47.964;7.982;2023-12-29T04:05:02;96823.66;;;15.80;63.48
48390;BME280;34643;47.964;7.982;2023-12-29T04:07:30;96825.44;;;15.80;63.51
48390;BME280;34643;47.964;7.982;2023-12-29T04:09:55;96820.22;;;15.80;63.28
48390;BME280;34643;47.964;7.982;2023-12-29T04:12:21;96810.53;;;15.82;63.42
48390;BME280;34643;47.964;7.982;2023-12-29T04:14:46;96815.94;;;15.78;63.33
48390;BME280;34643;47.964;7.982;2023-12-29T04:17:11;96815.75;;;15.82;63.34
48390;BME280;34643;47.964;7.982;2023-12-29T04:19:40;96814.69;;;15.84;63.32
48390;BME280;34643;47.964;7.982;2023-12-29T04:22:06;96832.91;;;15.84;63.34
48390;BME280;34643;47.964;7.982;2023-12-29T04:24:31;96835.41;;;15.86;63.13
48390;BME280;34643;47.964;7.982;2023-12-29T04:26:57;96837.09;;;15.87;63.17
48390;BME280;34643;47.964;7.982;2023-12-29T04:29:22;96833.78;;;15.85;63.16
48390;BME280;34643;47.964;7.982;2023-12-29T04:31:48;96839.81;;;15.85;63.26
48390;BME280;34643;47.964;7.982;2023-12-29T04:34:14;96833.16;;;15.81;63.29
48390;BME280;34643;47.964;7.982;2023-12-29T04:36:39;96833.25;;;15.80;63.47
48390;BME280;34643;47.964;7.982;2023-12-29T04:39:04;96829.78;;;15.79;63.52
48390;BME280;34643;47.964;7.982;2023-12-29T04:41:29;96832.81;;;15.86;63.30
48390;BME280;34643;47.964;7.982;2023-12-29T04:43:55;96835.22;;;15.89;63.19
48390;BME280;34643;47.964;7.982;2023-12-29T04:46:20;96829.19;;;15.88;63.08
48390;BME280;34643;47.964;7.982;2023-12-29T04:48:46;96839.38;;;15.91;62.99
48390;BME280;34643;47.964;7.982;2023-12-29T04:51:11;96831.47;;;15.93;63.04
48390;BME280;34643;47.964;7.982;2023-12-29T04:53:37;96824.38;;;15.95;62.97
48390;BME280;34643;47.964;7.982;2023-12-29T04:56:02;96817.63;;;15.92;63.09
48390;BME280;34643;47.964;7.982;2023-12-29T04:58:27;96831.28;;;15.96;63.13
48390;BME280;34643;47.964;7.982;2023-12-29T05:00:53;96820.03;;;15.95;62.98
48390;BME280;34643;47.964;7.982;2023-12-29T05:03:19;96821.69;;;15.96;63.02
48390;BME280;34643;47.964;7.982;2023-12-29T05:05:44;96828.97;;;15.91;63.18
48390;BME280;34643;47.964;7.982;2023-12-29T05:08:09;96829.59;;;15.95;63.29
48390;BME280;34643;47.964;7.982;2023-12-29T05:10:35;96833.78;;;15.98;63.29
48390;BME280;34643;47.964;7.982;2023-12-29T05:13:01;96818.16;;;15.98;63.17
48390;BME280;34643;47.964;7.982;2023-12-29T05:15:27;96815.44;;;15.99;63.05
48390;BME280;34643;47.964;7.982;2023-12-29T05:17:52;96816.16;;;16.01;63.11
48390;BME280;34643;47.964;7.982;2023-12-29T05:20:17;96818.34;;;15.94;63.25
48390;BME280;34643;47.964;7.982;2023-12-29T05:22:42;96819.19;;;15.95;63.23
48390;BME280;34643;47.964;7.982;2023-12-29T05:25:08;96820.84;;;15.96;63.18
48390;BME280;34643;47.964;7.982;2023-12-29T05:27:33;96821.78;;;15.95;63.36
48390;BME280;34643;47.964;7.982;2023-12-29T05:29:58;96836.28;;;15.99;63.17
48390;BME280;34643;47.964;7.982;2023-12-29T05:32:24;96825.25;;;15.95;63.33
48390;BME280;34643;47.964;7.982;2023-12-29T05:34:49;96822.00;;;15.92;63.35
48390;BME280;34643;47.964;7.982;2023-12-29T05:37:14;96812.09;;;15.97;63.25
48390;BME280;34643;47.964;7.982;2023-12-29T05:39:42;96806.59;;;16.02;63.16
48390;BME280;34643;47.964;7.982;2023-12-29T05:42:08;96809.28;;;16.00;63.15
48390;BME280;34643;47.964;7.982;2023-12-29T05:44:35;96800.84;;;15.96;63.18
48390;BME280;34643;47.964;7.982;2023-12-29T05:47:00;96801.47;;;16.00;63.13
48390;BME280;34643;47.964;7.982;2023-12-29T05:49:26;96804.41;;;15.95;63.27
48390;BME280;34643;47.964;7.982;2023-12-29T05:51:51;96805.03;;;15.99;63.17
48390;BME280;34643;47.964;7.982;2023-12-29T05:54:17;96812.84;;;15.99;63.12
48390;BME280;34643;47.964;7.982;2023-12-29T05:56:42;96809.19;;;16.02;63.24
48390;BME280;34643;47.964;7.982;2023-12-29T05:59:08;96814.38;;;16.02;62.95
48390;BME280;34643;47.964;7.982;2023-12-29T06:01:33;96813.66;;;16.00;63.10
48390;BME280;34643;47.964;7.982;2023-12-29T06:03:59;96814.69;;;15.97;63.08
48390;BME280;34643;47.964;7.982;2023-12-29T06:06:25;96813.16;;;15.94;63.22
48390;BME280;34643;47.964;7.982;2023-12-29T06:08:51;96817.28;;;15.97;62.99
48390;BME280;34643;47.964;7.982;2023-12-29T06:11:16;96832.09;;;15.96;63.05
48390;BME280;34643;47.964;7.982;2023-12-29T06:13:42;96816.81;;;15.92;63.11
48390;BME280;34643;47.964;7.982;2023-12-29T06:16:07;96819.28;;;15.93;63.16
48390;BME280;34643;47.964;7.982;2023-12-29T06:18:32;96820.31;;;15.91;63.20
48390;BME280;34643;47.964;7.982;2023-12-29T06:20:58;96832.63;;;15.89;63.20
48390;BME280;34643;47.964;7.982;2023-12-29T06:23:23;96843.56;;;15.94;62.99
48390;BME280;34643;47.964;7.982;2023-12-29T06:25:50;96834.41;;;15.88;63.12
48390;BME280;34643;47.964;7.982;2023-12-29T06:28:16;96842.06;;;15.90;63.27
48390;BME280;34643;47.964;7.982;2023-12-29T06:30:42;96834.50;;;15.87;63.36
48390;BME280;34643;47.964;7.982;2023-12-29T06:33:07;96828.56;;;15.85;63.22
48390;BME280;34643;47.964;7.982;2023-12-29T06:35:33;96832.91;;;15.84;63.23
48390;BME280;34643;47.964;7.982;2023-12-29T06:37:58;96831.38;;;15.82;63.36
48390;BME280;34643;47.964;7.982;2023-12-29T06:40:23;96833.16;;;15.81;63.33
48390;BME280;34643;47.964;7.982;2023-12-29T06:42:49;96836.66;;;15.80;63.32
48390;BME280;34643;47.964;7.982;2023-12-29T06:45:14;96844.56;;;15.78;63.35
48390;BME280;34643;47.964;7.982;2023-12-29T06:47:39;96835.00;;;15.79;63.20
48390;BME280;34643;47.964;7.982;2023-12-29T06:50:05;96845.53;;;15.77;63.34
48390;BME280;34643;47.964;7.982;2023-12-29T06:52:32;96842.06;;;15.77;63.42
48390;BME280;34643;47.964;7.982;2023-12-29T06:55:02;96850.84;;;15.76;63.26
48390;BME280;34643;47.964;7.982;2023-12-29T06:57:27;96856.03;;;15.76;63.36
48390;BME280;34643;47.964;7.982;2023-12-29T06:59:53;96852.66;;;15.74;63.43
48390;BME280;34643;47.964;7.982;2023-12-29T07:02:18;96850.94;;;15.74;63.25
48390;BME280;34643;47.964;7.982;2023-12-29T07:04:43;96853.59;;;15.73;63.33
48390;BME280;34643;47.964;7.982;2023-12-29T07:07:09;96864.00;;;15.73;63.28
48390;BME280;34643;47.964;7.982;2023-12-29T07:09:35;96857.22;;;15.70;63.31
48390;BME280;34643;47.964;7.982;2023-12-29T07:12:02;96864.09;;;15.71;63.22
48390;BME280;34643;47.964;7.982;2023-12-29T07:14:28;96852.03;;;15.70;63.18
48390;BME280;34643;47.964;7.982;2023-12-29T07:16:53;96849.41;;;15.70;63.22
48390;BME280;34643;47.964;7.982;2023-12-29T07:19:18;96852.16;;;15.69;63.28
48390;BME280;34643;47.964;7.982;2023-12-29T07:21:44;96843.47;;;15.68;63.16
48390;BME280;34643;47.964;7.982;2023-12-29T07:24:09;96841.84;;;15.67;63.10
48390;BME280;34643;47.964;7.982;2023-12-29T07:26:35;96854.00;;;15.67;63.25
48390;BME280;34643;47.964;7.982;2023-12-29T07:29:00;96849.66;;;15.67;63.30
48390;BME280;34643;47.964;7.982;2023-12-29T07:31:25;96843.72;;;15.65;63.29
48390;BME280;34643;47.964;7.982;2023-12-29T07:33:51;96846.41;;;15.64;63.28
48390;BME280;34643;47.964;7.982;2023-12-29T07:36:17;96840.34;;;15.63;63.30
48390;BME280;34643;47.964;7.982;2023-12-29T07:38:42;96842.13;;;15.63;63.18
48390;BME280;34643;47.964;7.982;2023-12-29T07:41:08;96841.31;;;15.62;63.23
48390;BME280;34643;47.964;7.982;2023-12-29T07:43:33;96841.41;;;15.61;63.18
48390;BME280;34643;47.964;7.982;2023-12-29T07:45:59;96843.19;;;15.60;63.11
48390;BME280;34643;47.964;7.982;2023-12-29T07:48:24;96843.19;;;15.60;63.09
48390;BME280;34643;47.964;7.982;2023-12-29T07:50:50;96843.38;;;15.57;63.23
48390;BME280;34643;47.964;7.982;2023-12-29T07:53:15;96835.66;;;15.55;63.32
48390;BME280;34643;47.964;7.982;2023-12-29T07:55:42;96832.25;;;15.55;63.40
48390;BME280;34643;47.964;7.982;2023-12-29T07:58:07;96839.63;;;15.61;63.19
48390;BME280;34643;47.964;7.982;2023-12-29T08:00:35;96841.31;;;15.62;63.38
48390;BME280;34643;47.964;7.982;2023-12-29T08:03:00;96834.03;;;15.67;63.34
48390;BME280;34643;47.964;7.982;2023-12-29T08:05:25;96840.88;;;15.68;63.33
48390;BME280;34643;47.964;7.982;2023-12-29T08:07:51;96835.59;;;15.70;63.19
48390;BME280;34643;47.964;7.982;2023-12-29T08:10:16;96834.66;;;15.71;63.09
48390;BME280;34643;47.964;7.982;2023-12-29T08:12:41;96845.38;;;15.66;62.98
48390;BME280;34643;47.964;7.982;2023-12-29T08:15:07;96847.25;;;15.64;62.91
48390;BME280;34643;47.964;7.982;2023-12-29T08:17:32;96850.66;;;15.65;62.99
48390;BME280;34643;47.964;7.982;2023-12-29T08:19:57;96847.44;;;15.61;62.87
48390;BME280;34643;47.964;7.982;2023-12-29T08:22:23;96867.50;;;15.59;62.74
48390;BME280;34643;47.964;7.982;2023-12-29T08:24:48;96851.91;;;15.59;62.73
48390;BME280;34643;47.964;7.982;2023-12-29T08:27:14;96861.59;;;15.57;62.37
48390;BME280;34643;47.964;7.982;2023-12-29T08:29:39;96865.88;;;15.58;62.10
48390;BME280;34643;47.964;7.982;2023-12-29T08:32:05;96870.31;;;15.56;62.26
48390;BME280;34643;47.964;7.982;2023-12-29T08:34:30;96865.34;;;15.53;62.14
48390;BME280;34643;47.964;7.982;2023-12-29T08:36:56;96867.94;;;15.53;62.09
48390;BME280;34643;47.964;7.982;2023-12-29T08:39:21;96866.25;;;15.52;61.84
48390;BME280;34643;47.964;7.982;2023-12-29T08:41:46;96878.34;;;15.53;61.70
48390;BME280;34643;47.964;7.982;2023-12-29T08:44:12;96883.63;;;15.51;61.79
48390;BME280;34643;47.964;7.982;2023-12-29T08:46:37;96872.59;;;15.48;61.87
48390;BME280;34643;47.964;7.982;2023-12-29T08:49:03;96876.84;;;15.49;61.83
48390;BME280;34643;47.964;7.982;2023-12-29T08:51:28;96877.56;;;15.51;61.69
48390;BME280;34643;47.964;7.982;2023-12-29T08:53:54;96886.16;;;15.53;61.34
48390;BME280;34643;47.964;7.982;2023-12-29T08:56:19;96892.16;;;15.53;61.19
48390;BME280;34643;47.964;7.982;2023-12-29T08:58:44;96880.19;;;15.51;61.38
48390;BME280;34643;47.964;7.982;2023-12-29T09:01:09;96884.47;;;15.52;61.25
48390;BME280;34643;47.964;7.982;2023-12-29T09:03:35;96877.38;;;15.54;61.13
48390;BME280;34643;47.964;7.982;2023-12-29T09:06:00;96880.19;;;15.51;61.30
48390;BME280;34643;47.964;7.982;2023-12-29T09:08:26;96886.97;;;15.53;61.15
48390;BME280;34643;47.964;7.982;2023-12-29T09:10:52;96882.59;;;15.54;61.15
48390;BME280;34643;47.964;7.982;2023-12-29T09:13:18;96886.97;;;15.53;61.20
48390;BME280;34643;47.964;7.982;2023-12-29T09:15:47;96875.63;;;15.54;61.26
48390;BME280;34643;47.964;7.982;2023-12-29T09:18:13;96879.50;;;15.62;60.74
48390;BME280;34643;47.964;7.982;2023-12-29T09:20:38;96876.91;;;15.62;60.88
48390;BME280;34643;47.964;7.982;2023-12-29T09:23:04;96871.56;;;15.63;60.90
48390;BME280;34643;47.964;7.982;2023-12-29T09:25:30;96872.34;;;15.65;60.69
48390;BME280;34643;47.964;7.982;2023-12-29T09:27:55;96867.13;;;15.65;60.64
48390;BME280;34643;47.964;7.982;2023-12-29T09:30:20;96861.94;;;15.65;60.80
48390;BME280;34643;47.964;7.982;2023-12-29T09:32:46;96873.16;;;15.66;60.85
48390;BME280;34643;47.964;7.982;2023-12-29T09:35:11;96878.25;;;15.67;60.75
48390;BME280;34643;47.964;7.982;2023-12-29T09:37:37;96884.50;;;15.65;60.82
48390;BME280;34643;47.964;7.982;2023-12-29T09:40:02;96881.88;;;15.65;60.72
48390;BME280;34643;47.964;7.982;2023-12-29T09:42:28;96874.41;;;15.60;60.98
48390;BME280;34643;47.964;7.982;2023-12-29T09:44:54;96881.16;;;15.63;60.88
48390;BME280;34643;47.964;7.982;2023-12-29T09:47:20;96886.34;;;15.63;60.74
48390;BME280;34643;47.964;7.982;2023-12-29T09:49:46;96885.34;;;15.65;60.73
48390;BME280;34643;47.964;7.982;2023-12-29T09:52:11;96884.50;;;15.65;60.67
48390;BME280;34643;47.964;7.982;2023-12-29T09:54:37;96879.28;;;15.65;60.73
48390;BME280;34643;47.964;7.982;2023-12-29T09:57:06;96885.34;;;15.65;60.67
48390;BME280;34643;47.964;7.982;2023-12-29T09:59:34;96889.69;;;15.65;60.77
48390;BME280;34643;47.964;7.982;2023-12-29T10:02:02;96899.00;;;15.69;60.64
48390;BME280;34643;47.964;7.982;2023-12-29T10:04:28;96883.47;;;15.67;60.75
48390;BME280;34643;47.964;7.982;2023-12-29T10:06:54;96873.69;;;15.71;60.52
48390;BME280;34643;47.964;7.982;2023-12-29T10:09:19;96878.03;;;15.70;60.59
48390;BME280;34643;47.964;7.982;2023-12-29T10:11:46;96871.91;;;15.71;60.53
48390;BME280;34643;47.964;7.982;2023-12-29T10:14:26;96873.69;;;15.71;60.74
48390;BME280;34643;47.964;7.982;2023-12-29T10:16:53;96870.22;;;15.70;60.63
48390;BME280;34643;47.964;7.982;2023-12-29T10:19:39;96868.50;;;15.71;60.60
48390;BME280;34643;47.964;7.982;2023-12-29T10:22:10;96860.69;;;15.71;60.57
48390;BME280;34643;47.964;7.982;2023-12-29T10:24:37;96860.69;;;15.71;60.61
48390;BME280;34643;47.964;7.982;2023-12-29T10:27:03;96840.06;;;15.68;60.64
48390;BME280;34643;47.964;7.982;2023-12-29T10:29:28;96853.78;;;15.70;60.65
48390;BME280;34643;47.964;7.982;2023-12-29T10:31:54;96846.00;;;15.70;60.54
48390;BME280;34643;47.964;7.982;2023-12-29T10:34:20;96849.41;;;15.70;60.75
48390;BME280;34643;47.964;7.982;2023-12-29T10:36:49;96849.66;;;15.67;60.72
48390;BME280;34643;47.964;7.982;2023-12-29T10:39:14;96845.47;;;15.65;60.72
48390;BME280;34643;47.964;7.982;2023-12-29T10:41:40;96859.53;;;15.62;60.83
48390;BME280;34643;47.964;7.982;2023-12-29T10:44:06;96849.66;;;15.67;60.75
48390;BME280;34643;47.964;7.982;2023-12-29T10:46:32;96854.94;;;15.66;61.09
48390;BME280;34643;47.964;7.982;2023-12-29T10:49:19;96851.53;;;15.65;60.71
48390;BME280;34643;47.964;7.982;2023-12-29T10:51:43;96851.63;;;15.64;60.69
48390;BME280;34643;47.964;7.982;2023-12-29T10:54:09;96852.44;;;15.64;60.88
48390;BME280;34643;47.964;7.982;2023-12-29T10:56:44;96840.88;;;15.68;60.74
48390;BME280;34643;47.964;7.982;2023-12-29T10:59:09;96836.41;;;15.70;60.56
48390;BME280;34643;47.964;7.982;2023-12-29T11:01:37;96837.16;;;15.72;60.24
48390;BME280;34643;47.964;7.982;2023-12-29T11:04:03;96836.22;;;15.73;60.41
48390;BME280;34643;47.964;7.982;2023-12-29T11:06:29;96824.16;;;15.72;60.53
48390;BME280;34643;47.964;7.982;2023-12-29T11:08:55;96823.94;;;15.75;60.38
48390;BME280;34643;47.964;7.982;2023-12-29T11:11:21;96819.59;;;15.76;60.44
48390;BME280;34643;47.964;7.982;2023-12-29T11:13:46;96821.25;;;15.77;60.33
48390;BME280;34643;47.964;7.982;2023-12-29T11:16:12;96823.56;;;15.82;60.41
48390;BME280;34643;47.964;7.982;2023-12-29T11:18:38;96821.06;;;15.80;60.38
48390;BME280;34643;47.964;7.982;2023-12-29T11:21:05;96822.84;;;15.80;60.35
48390;BME280;34643;47.964;7.982;2023-12-29T11:23:31;96824.59;;;15.79;60.36
48390;BME280;34643;47.964;7.982;2023-12-29T11:25:56;96820.22;;;15.80;60.42
48390;BME280;34643;47.964;7.982;2023-12-29T11:28:23;96810.84;;;15.77;60.35
48390;BME280;34643;47.964;7.982;2023-12-29T11:30:50;96823.75;;;15.78;60.45
48390;BME280;34643;47.964;7.982;2023-12-29T11:33:18;96819.28;;;15.81;60.56
48390;BME280;34643;47.964;7.982;2023-12-29T11:43:30;96803.38;;;15.85;60.14
48390;BME280;34643;47.964;7.982;2023-12-29T11:45:55;96801.59;;;15.86;60.41
48390;BME280;34643;47.964;7.982;2023-12-29T11:53:49;96797.19;;;15.86;60.34
48390;BME280;34643;47.964;7.982;2023-12-29T11:56:14;96800.66;;;15.87;60.32
48390;BME280;34643;47.964;7.982;2023-12-29T11:58:40;96804.81;;;15.89;60.19
48390;BME280;34643;47.964;7.982;2023-12-29T12:01:05;96804.81;;;15.89;60.17
48390;BME280;34643;47.964;7.982;2023-12-29T12:03:31;96798.78;;;15.89;60.11
48390;BME280;34643;47.964;7.982;2023-12-29T12:05:59;96797.72;;;15.91;60.03
48390;BME280;34643;47.964;7.982;2023-12-29T12:08:37;96797.97;;;15.88;60.32
48390;BME280;34643;47.964;7.982;2023-12-29T12:11:50;96787.41;;;15.90;60.24
48390;BME280;34643;47.964;7.982;2023-12-29T12:13:50;96774.41;;;15.90;60.14
48390;BME280;34643;47.964;7.982;2023-12-29T12:16:46;96778.47;;;15.94;60.06
48390;BME280;34643;47.964;7.982;2023-12-29T12:19:06;96771.78;;;15.90;60.25
48390;BME280;34643;47.964;7.982;2023-12-29T12:21:32;96769.09;;;15.91;60.17
48390;BME280;34643;47.964;7.982;2023-12-29T12:23:57;96760.47;;;15.91;60.17
48390;BME280;34643;47.964;7.982;2023-12-29T12:26:24;96763.16;;;15.89;60.17
48390;BME280;34643;47.964;7.982;2023-12-29T12:28:53;96771.78;;;15.90;60.25
48390;BME280;34643;47.964;7.982;2023-12-29T12:31:19;96770.88;;;15.91;60.24
48390;BME280;34643;47.964;7.982;2023-12-29T12:33:52;96766.72;;;15.88;60.21
48390;BME280;34643;47.964;7.982;2023-12-29T12:36:18;96762.13;;;15.92;60.13
48390;BME280;34643;47.964;7.982;2023-12-29T12:38:50;96770.16;;;15.89;60.20
48390;BME280;34643;47.964;7.982;2023-12-29T12:41:15;96762.34;;;15.89;60.25
48390;BME280;34643;47.964;7.982;2023-12-29T12:43:40;96771.06;;;15.88;60.28
48390;BME280;34643;47.964;7.982;2023-12-29T12:46:11;96764.84;;;15.90;60.24
48390;BME280;34643;47.964;7.982;2023-12-29T12:48:40;96758.59;;;15.93;60.42
48390;BME280;34643;47.964;7.982;2023-12-29T12:51:07;96760.16;;;15.95;60.27
48390;BME280;34643;47.964;7.982;2023-12-29T12:53:33;96770.66;;;15.94;60.32
48390;BME280;34643;47.964;7.982;2023-12-29T12:55:58;96746.53;;;15.92;60.34
48390;BME280;34643;47.964;7.982;2023-12-29T12:58:23;96756.94;;;15.92;60.60
48390;BME280;34643;47.964;7.982;2023-12-29T13:00:51;96744.53;;;15.95;60.41
48390;BME280;34643;47.964;7.982;2023-12-29T13:03:16;96765.47;;;15.94;60.54
48390;BME280;34643;47.964;7.982;2023-12-29T13:05:42;96754.19;;;15.93;60.55
48390;BME280;34643;47.964;7.982;2023-12-29T13:08:08;96747.97;;;15.96;60.64
48390;BME280;34643;47.964;7.982;2023-12-29T13:10:34;96742.75;;;15.96;60.56
48390;BME280;34643;47.964;7.982;2023-12-29T13:12:59;96739.19;;;15.97;60.48
48390;BME280;34643;47.964;7.982;2023-12-29T13:15:24;96747.97;;;15.96;60.57